Time;durP1;ratioP1;P1;durP2;ratioP2;P2;SDS_P1;SDS_P2;PMS_P1;PMS_P2;Temp;Humidity;BMP_temperature;BMP_pressure;BME280_temperature;BME280_humidity;BME280_pressure;Samples;Min_cycle;Max_cycle;Signal;HPM_P1;HPM_P2
2022/01/31 00:02:19;;;;;;;0.60;0.60;;;3.80;94.60;;;;;;5017471;28;20052;-74
2022/01/31 00:04:44;;;;;;;0.20;0.20;;;3.70;94.70;;;;;;5034267;28;20028;-74
2022/01/31 00:07:11;;;;;;;1.05;1.02;;;3.70;94.60;;;;;;5051595;28;20025;-74
2022/01/31 00:09:38;;;;;;;0.30;0.30;;;3.60;94.70;;;;;;5033813;28;20029;-74
2022/01/31 00:12:08;;;;;;;0.30;0.30;;;3.70;95.00;;;;;;5051534;28;20055;-75
2022/01/31 00:17:06;;;;;;;0.30;0.30;;;4.10;94.50;;;;;;5033784;28;20561;-74
2022/01/31 00:19:32;;;;;;;0.40;0.40;;;4.00;93.90;;;;;;5033817;28;20033;-74
2022/01/31 00:21:58;;;;;;;0.57;0.57;;;4.00;94.40;;;;;;5051564;28;20542;-74
2022/01/31 00:24:24;;;;;;;0.30;0.30;;;3.90;94.20;;;;;;5051456;28;20025;-74
2022/01/31 00:26:50;;;;;;;0.28;0.28;;;3.90;95.30;;;;;;5051434;28;20098;-74
2022/01/31 00:29:17;;;;;;;4.45;1.05;;;4.00;94.70;;;;;;5051666;28;20032;-74
2022/01/31 00:31:43;;;;;;;1.45;0.77;;;4.00;95.10;;;;;;5065236;23;20033;-70
2022/01/31 00:34:08;;;;;;;0.32;0.32;;;3.90;95.30;;;;;;5051857;28;20483;-70
2022/01/31 00:36:34;;;;;;;0.40;0.40;;;3.70;95.60;;;;;;5051376;28;20017;-70
2022/01/31 00:39:00;;;;;;;0.20;0.20;;;3.50;95.90;;;;;;5051485;28;20025;-70
2022/01/31 00:41:26;;;;;;;0.30;0.30;;;3.50;96.30;;;;;;5051485;28;20664;-70
2022/01/31 00:44:13;;;;;;;3.88;1.38;;;3.70;96.10;;;;;;5053697;28;20017;-70
2022/01/31 00:46:42;;;;;;;0.30;0.30;;;3.50;95.70;;;;;;5055377;28;20033;-70
2022/01/31 00:49:16;;;;;;;0.30;0.30;;;3.50;96.20;;;;;;5055447;28;20032;-70
2022/01/31 00:51:42;;;;;;;0.35;0.35;;;3.60;96.20;;;;;;5020799;28;20033;-70
2022/01/31 00:54:08;;;;;;;0.30;0.30;;;3.80;96.00;;;;;;5037394;28;20021;-71
2022/01/31 00:56:34;;;;;;;0.28;0.28;;;3.80;95.40;;;;;;5055216;28;20023;-71
2022/01/31 00:58:59;;;;;;;0.22;0.22;;;3.80;95.30;;;;;;5020939;28;20075;-70
2022/01/31 01:01:25;;;;;;;0.30;0.30;;;3.90;95.60;;;;;;5055059;28;20025;-70
2022/01/31 01:03:51;;;;;;;0.20;0.20;;;4.00;95.40;;;;;;5055124;28;20055;-71
2022/01/31 01:06:17;;;;;;;0.30;0.30;;;4.00;95.30;;;;;;5037052;28;20029;-71
2022/01/31 01:08:42;;;;;;;0.20;0.20;;;4.10;95.10;;;;;;5055159;28;20477;-71
2022/01/31 01:11:09;;;;;;;0.30;0.30;;;4.30;95.20;;;;;;5055002;28;20036;-71
2022/01/31 01:13:34;;;;;;;0.20;0.20;;;4.40;94.50;;;;;;5055053;28;20099;-71
2022/01/31 01:16:00;;;;;;;0.30;0.30;;;4.40;95.00;;;;;;5054914;28;20104;-71
2022/01/31 01:18:26;;;;;;;0.20;0.20;;;4.20;94.40;;;;;;5037099;28;20070;-71
2022/01/31 01:20:52;;;;;;;0.30;0.30;;;4.30;94.60;;;;;;5036875;28;20029;-70
2022/01/31 01:23:18;;;;;;;0.30;0.30;;;4.20;94.30;;;;;;5054806;28;20032;-71
2022/01/31 01:25:43;;;;;;;0.20;0.20;;;4.30;94.70;;;;;;5054658;28;20025;-71
2022/01/31 01:28:09;;;;;;;0.30;0.30;;;4.30;94.20;;;;;;5054855;28;20059;-71
2022/01/31 01:30:35;;;;;;;0.30;0.30;;;4.40;94.80;;;;;;5054415;28;20025;-71
2022/01/31 01:33:07;;;;;;;0.30;0.30;;;4.30;94.40;;;;;;5054636;28;20534;-71
2022/01/31 01:35:34;;;;;;;0.30;0.30;;;4.40;94.80;;;;;;5036364;28;20021;-71
2022/01/31 01:38:06;;;;;;;0.30;0.30;;;4.40;94.60;;;;;;5054614;28;20390;-71
2022/01/31 01:40:33;;;;;;;;;;;4.30;94.60;;;;;;5036994;28;20017;-71
2022/01/31 01:42:58;;;;;;;0.30;0.30;;;4.40;94.60;;;;;;5036440;28;19935;-71
2022/01/31 01:45:25;;;;;;;0.30;0.30;;;4.40;94.80;;;;;;5054438;28;20063;-71
2022/01/31 01:47:51;;;;;;;0.20;0.20;;;4.50;94.70;;;;;;5020344;28;20029;-74
2022/01/31 01:50:17;;;;;;;0.70;0.70;;;4.50;94.50;;;;;;5055504;28;20021;-70
2022/01/31 01:52:43;;;;;;;0.30;0.30;;;4.60;94.70;;;;;;5054444;28;20025;-70
2022/01/31 01:55:09;;;;;;;0.73;0.73;;;4.40;94.20;;;;;;5053406;28;20052;-70
2022/01/31 01:57:35;;;;;;;0.20;0.20;;;4.30;94.70;;;;;;5054106;28;20036;-70
2022/01/31 02:00:01;;;;;;;0.30;0.30;;;4.30;95.10;;;;;;5036361;28;20045;-70
2022/01/31 02:02:26;;;;;;;0.45;0.45;;;4.20;94.70;;;;;;5054031;28;20029;-70
2022/01/31 02:04:52;;;;;;;1.50;1.10;;;4.00;95.10;;;;;;5053996;28;20024;-70
2022/01/31 02:07:20;;;;;;;0.30;0.30;;;3.70;96.10;;;;;;5036092;28;20056;-71
2022/01/31 02:09:53;;;;;;;0.30;0.30;;;3.60;96.90;;;;;;5036061;28;20025;-70
2022/01/31 02:12:19;;;;;;;0.25;0.25;;;3.70;97.40;;;;;;5053915;28;20121;-71
2022/01/31 02:14:44;;;;;;;0.30;0.30;;;3.60;97.00;;;;;;5053975;28;20044;-71
2022/01/31 02:17:10;;;;;;;0.30;0.30;;;3.70;97.00;;;;;;5036064;28;20671;-71
2022/01/31 02:19:37;;;;;;;0.28;0.28;;;3.90;97.50;;;;;;5053855;28;20057;-70
2022/01/31 02:22:03;;;;;;;0.30;0.30;;;4.00;96.50;;;;;;5053814;28;20028;-71
2022/01/31 02:24:30;;;;;;;0.30;0.30;;;4.10;96.00;;;;;;5053816;28;20032;-70
2022/01/31 02:26:57;;;;;;;0.28;0.28;;;4.10;96.50;;;;;;5053659;28;20029;-70
2022/01/31 02:29:22;;;;;;;0.30;0.30;;;4.30;97.00;;;;;;5053752;28;20108;-71
2022/01/31 02:31:49;;;;;;;0.20;0.20;;;4.50;96.70;;;;;;5053498;28;20083;-70
2022/01/31 02:34:16;;;;;;;0.20;0.20;;;4.60;96.50;;;;;;5053657;28;20021;-72
2022/01/31 02:36:42;;;;;;;0.20;0.20;;;4.60;95.70;;;;;;5053532;28;20483;-69
2022/01/31 02:39:09;;;;;;;0.30;0.30;;;4.50;95.70;;;;;;5053654;28;20029;-70
2022/01/31 02:41:42;;;;;;;0.28;0.28;;;4.50;96.20;;;;;;5053599;28;20024;-70
2022/01/31 02:44:15;;;;;;;0.30;0.30;;;4.50;96.30;;;;;;5053454;28;20041;-70
2022/01/31 02:46:52;;;;;;;0.20;0.20;;;4.50;96.50;;;;;;5035410;28;20063;-70
2022/01/31 02:49:22;;;;;;;0.30;0.30;;;4.30;96.10;;;;;;5053275;28;20078;-70
2022/01/31 02:51:59;;;;;;;0.20;0.20;;;4.20;96.30;;;;;;5053513;28;20060;-70
2022/01/31 02:54:26;;;;;;;0.30;0.30;;;4.20;96.60;;;;;;5053085;28;20104;-71
2022/01/31 02:56:52;;;;;;;0.20;0.20;;;4.00;96.70;;;;;;5053218;28;20489;-71
2022/01/31 02:59:18;;;;;;;0.20;0.20;;;4.10;97.50;;;;;;5053129;28;20029;-71
2022/01/31 03:01:44;;;;;;;0.20;0.20;;;4.20;97.50;;;;;;5053072;28;20063;-71
2022/01/31 03:04:10;;;;;;;0.20;0.20;;;4.30;96.70;;;;;;5053120;28;20052;-71
2022/01/31 03:06:38;;;;;;;0.20;0.20;;;4.30;96.70;;;;;;5051969;28;20535;-71
2022/01/31 03:09:05;;;;;;;0.30;0.30;;;4.40;96.90;;;;;;5052832;28;20028;-71
2022/01/31 03:11:31;;;;;;;0.30;0.30;;;4.10;96.50;;;;;;5052704;28;20048;-71
2022/01/31 03:13:57;;;;;;;0.30;0.30;;;4.00;97.40;;;;;;5034905;28;20021;-70
2022/01/31 03:16:23;;;;;;;0.30;0.30;;;4.00;97.10;;;;;;5052623;28;20070;-71
2022/01/31 03:18:48;;;;;;;0.28;0.28;;;3.90;97.20;;;;;;5034716;28;20024;-71
2022/01/31 03:21:15;;;;;;;0.30;0.30;;;3.80;97.90;;;;;;5052712;28;20029;-71
2022/01/31 03:23:41;;;;;;;0.30;0.30;;;3.90;98.00;;;;;;5052474;28;20025;-71
2022/01/31 03:26:07;;;;;;;0.73;0.73;;;3.90;97.80;;;;;;5052499;28;20029;-71
2022/01/31 03:28:32;;;;;;;0.20;0.20;;;3.70;97.50;;;;;;5034657;28;20028;-71
2022/01/31 03:30:58;;;;;;;0.30;0.30;;;3.60;98.50;;;;;;5052278;28;20043;-71
2022/01/31 03:33:24;;;;;;;0.30;0.30;;;3.60;98.90;;;;;;5034602;28;20388;-71
2022/01/31 03:35:50;;;;;;;0.30;0.30;;;3.70;99.90;;;;;;5052287;28;20079;-71
2022/01/31 03:38:15;;;;;;;0.60;0.60;;;3.80;99.00;;;;;;5052313;28;20392;-71
2022/01/31 03:40:41;;;;;;;0.32;0.32;;;3.80;98.70;;;;;;5034487;28;20029;-71
2022/01/31 03:43:07;;;;;;;0.30;0.30;;;3.60;99.00;;;;;;5052282;28;20029;-71
2022/01/31 03:45:34;;;;;;;0.40;0.40;;;3.50;99.90;;;;;;5052303;28;20017;-71
2022/01/31 03:48:02;;;;;;;0.28;0.28;;;3.50;99.90;;;;;;5034476;28;20049;-71
2022/01/31 03:50:28;;;;;;;0.30;0.30;;;3.60;99.80;;;;;;5052514;28;20070;-71
2022/01/31 03:52:53;;;;;;;0.20;0.20;;;3.80;99.90;;;;;;5017727;28;20427;-70
2022/01/31 03:55:20;;;;;;;0.30;0.30;;;4.00;99.90;;;;;;5052459;28;20029;-71
2022/01/31 03:57:46;;;;;;;0.20;0.20;;;4.20;99.90;;;;;;5052101;28;20381;-71
2022/01/31 04:00:14;;;;;;;0.20;0.20;;;4.30;99.30;;;;;;5052167;28;20024;-71
2022/01/31 04:02:41;;;;;;;0.28;0.28;;;4.40;99.00;;;;;;5051885;28;20021;-71
2022/01/31 04:05:08;;;;;;;0.20;0.20;;;4.20;97.90;;;;;;5052075;28;20104;-71
2022/01/31 04:07:34;;;;;;;0.20;0.20;;;4.00;99.00;;;;;;5051857;28;20094;-71
2022/01/31 04:10:00;;;;;;;0.20;0.20;;;4.10;99.60;;;;;;5034170;28;20090;-71
2022/01/31 04:12:26;;;;;;;0.20;0.20;;;4.00;98.20;;;;;;5051835;28;20079;-71
2022/01/31 04:14:52;;;;;;;0.30;0.30;;;3.90;99.90;;;;;;5034071;28;20024;-71
2022/01/31 04:17:20;;;;;;;1.33;0.93;;;3.90;99.20;;;;;;5051792;28;20017;-71
2022/01/31 04:19:47;;;;;;;0.30;0.30;;;3.70;99.20;;;;;;5021578;28;20594;-71
2022/01/31 04:22:16;;;;;;;0.30;0.30;;;3.40;99.80;;;;;;5055796;28;20369;-71
2022/01/31 04:24:43;;;;;;;0.30;0.30;;;3.20;99.90;;;;;;5038070;28;20048;-71
2022/01/31 04:27:16;;;;;;;0.50;0.50;;;3.40;99.90;;;;;;5055936;28;20029;-71
2022/01/31 04:29:43;;;;;;;1.05;0.73;;;3.50;99.90;;;;;;5021726;28;20033;-71
2022/01/31 04:32:09;;;;;;;0.30;0.30;;;3.30;99.90;;;;;;5055510;28;20025;-71
2022/01/31 04:34:35;;;;;;;0.73;0.73;;;3.10;99.90;;;;;;5055969;28;20361;-71
2022/01/31 04:37:02;;;;;;;0.30;0.30;;;3.00;99.90;;;;;;5037865;28;20069;-70
2022/01/31 04:39:29;;;;;;;0.30;0.30;;;2.90;99.90;;;;;;5056706;28;20046;-73
2022/01/31 04:41:56;;;;;;;0.30;0.30;;;2.80;99.90;;;;;;5038205;28;20040;-75
2022/01/31 04:44:22;;;;;;;4.10;1.20;;;2.80;99.90;;;;;;5037858;28;20025;-71
2022/01/31 04:46:49;;;;;;;2.28;1.02;;;2.70;99.90;;;;;;5055466;28;20021;-71
2022/01/31 04:49:19;;;;;;;1.02;1.02;;;2.60;99.90;;;;;;5037628;28;20369;-71
2022/01/31 04:51:45;;;;;;;0.30;0.30;;;2.60;99.90;;;;;;5055504;28;20032;-70
2022/01/31 04:54:11;;;;;;;0.32;0.32;;;2.60;99.90;;;;;;5055902;28;20025;-71
2022/01/31 04:56:39;;;;;;;0.38;0.38;;;2.70;99.90;;;;;;5055864;28;20472;-71
2022/01/31 04:59:04;;;;;;;0.28;0.28;;;2.60;99.90;;;;;;5055427;28;20020;-71
2022/01/31 05:01:31;;;;;;;0.40;0.40;;;2.80;99.90;;;;;;5055266;28;20113;-71
2022/01/31 05:03:56;;;;;;;1.88;1.30;;;2.70;99.90;;;;;;5055188;28;20049;-71
2022/01/31 05:06:32;;;;;;;0.30;0.30;;;2.70;99.90;;;;;;5055136;28;20036;-72
2022/01/31 05:08:58;;;;;;;0.30;0.30;;;2.70;99.90;;;;;;5055239;28;20029;-70
2022/01/31 05:11:24;;;;;;;0.30;0.30;;;3.10;99.90;;;;;;5055108;28;20400;-70
2022/01/31 05:13:50;;;;;;;0.40;0.40;;;3.10;99.90;;;;;;5055042;28;20092;-71
2022/01/31 05:16:16;;;;;;;0.80;0.68;;;3.10;99.90;;;;;;5054819;28;20082;-71
2022/01/31 05:18:44;;;;;;;0.30;0.30;;;3.00;99.90;;;;;;5055264;28;20096;-71
2022/01/31 05:21:10;;;;;;;0.30;0.30;;;3.00;99.90;;;;;;5054935;28;20028;-71
2022/01/31 05:23:36;;;;;;;0.52;0.52;;;2.90;99.90;;;;;;5037039;28;20040;-71
2022/01/31 05:26:02;;;;;;;0.30;0.30;;;3.10;99.90;;;;;;5054736;28;20025;-71
2022/01/31 05:28:28;;;;;;;0.30;0.30;;;3.10;99.90;;;;;;5054930;28;20025;-71
2022/01/31 05:30:54;;;;;;;0.30;0.30;;;3.20;99.90;;;;;;5053364;28;20044;-71
2022/01/31 05:33:19;;;;;;;0.30;0.30;;;3.40;99.90;;;;;;5054611;28;20017;-71
2022/01/31 05:35:45;;;;;;;1.42;0.77;;;3.30;99.90;;;;;;5054513;28;20092;-72
2022/01/31 05:38:12;;;;;;;0.30;0.30;;;3.10;99.90;;;;;;5054544;28;20025;-71
2022/01/31 05:40:38;;;;;;;6.07;2.47;;;3.00;99.90;;;;;;5054544;28;20087;-71
2022/01/31 05:43:04;;;;;;;0.32;0.32;;;2.90;99.90;;;;;;5054415;28;20036;-71
2022/01/31 05:45:30;;;;;;;0.40;0.40;;;2.90;99.90;;;;;;5054239;28;20029;-71
2022/01/31 05:47:56;;;;;;;0.57;0.57;;;2.90;99.90;;;;;;5054307;28;20025;-71
2022/01/31 05:50:22;;;;;;;0.82;0.82;;;2.80;99.90;;;;;;5054431;28;20113;-71
2022/01/31 05:52:48;;;;;;;0.32;0.32;;;2.90;99.90;;;;;;5054323;28;20104;-72
2022/01/31 05:55:14;;;;;;;1.15;1.05;;;2.90;99.90;;;;;;5054157;28;20070;-71
2022/01/31 05:57:42;;;;;;;0.45;0.45;;;2.90;99.90;;;;;;5036610;28;20380;-71
2022/01/31 06:00:08;;;;;;;0.88;0.65;;;2.90;99.90;;;;;;5054131;28;20100;-71
2022/01/31 06:02:35;;;;;;;1.65;1.05;;;2.90;99.90;;;;;;5054095;28;20029;-71
2022/01/31 06:05:02;;;;;;;1.20;0.77;;;2.90;99.90;;;;;;5054031;28;20025;-72
2022/01/31 06:07:28;;;;;;;0.80;0.65;;;2.90;99.90;;;;;;5053989;28;20029;-71
2022/01/31 06:09:53;;;;;;;0.38;0.28;;;2.90;99.90;;;;;;5053963;28;20036;-72
2022/01/31 06:12:19;;;;;;;0.82;0.75;;;2.90;99.90;;;;;;5053774;28;20473;-71
2022/01/31 06:14:45;;;;;;;0.20;0.20;;;2.90;99.90;;;;;;5053854;28;20029;-71
2022/01/31 06:17:10;;;;;;;0.40;0.40;;;2.90;99.90;;;;;;5053876;28;20025;-71
2022/01/31 06:19:36;;;;;;;0.47;0.47;;;2.90;99.90;;;;;;5053862;28;20063;-71
2022/01/31 06:22:02;;;;;;;0.98;0.98;;;2.80;99.90;;;;;;5053874;28;20033;-71
2022/01/31 06:24:28;;;;;;;1.10;0.95;;;2.80;99.90;;;;;;5053899;28;20449;-71
2022/01/31 06:26:54;;;;;;;0.20;0.20;;;2.80;99.90;;;;;;5052773;28;20029;-70
2022/01/31 06:29:20;;;;;;;4.75;1.55;;;2.80;99.90;;;;;;5035216;28;20104;-70
2022/01/31 06:31:46;;;;;;;12.82;1.98;;;2.80;99.90;;;;;;5034899;28;20029;-71
2022/01/31 06:34:12;;;;;;;0.50;0.50;;;2.70;99.90;;;;;;5112316;22;20040;-75
2022/01/31 06:36:37;;;;;;;4.78;2.42;;;2.70;99.90;;;;;;5052993;28;20445;-76
2022/01/31 06:39:04;;;;;;;3.72;1.05;;;2.80;99.90;;;;;;5053058;28;20021;-76
2022/01/31 06:41:29;;;;;;;0.40;0.40;;;2.80;99.90;;;;;;5034585;28;20017;-75
2022/01/31 06:43:56;;;;;;;1.52;1.10;;;2.80;99.90;;;;;;5034944;28;20404;-75
2022/01/31 06:46:22;;;;;;;2.85;1.67;;;2.90;99.90;;;;;;5052958;28;20025;-75
2022/01/31 06:48:47;;;;;;;2.97;1.77;;;2.90;99.90;;;;;;5052708;28;20017;-75
2022/01/31 06:51:14;;;;;;;23.58;3.50;;;2.80;99.90;;;;;;5018322;28;20480;-75
2022/01/31 06:53:41;;;;;;;2.28;1.45;;;2.90;99.90;;;;;;5034906;28;20029;-75
2022/01/31 06:56:07;;;;;;;2.90;2.13;;;2.90;99.90;;;;;;5052812;28;20021;-75
2022/01/31 06:58:33;;;;;;;4.25;2.63;;;2.90;99.90;;;;;;5051802;28;20025;-75
2022/01/31 07:00:59;;;;;;;7.57;3.47;;;2.90;99.90;;;;;;5052327;28;20013;-75
2022/01/31 07:03:25;;;;;;;2.90;1.48;;;2.80;99.90;;;;;;5052275;28;20100;-75
2022/01/31 07:05:51;;;;;;;0.45;0.45;;;2.80;99.90;;;;;;5034336;28;20078;-76
2022/01/31 07:08:16;;;;;;;6.32;2.67;;;2.80;99.90;;;;;;5052058;28;20017;-76
2022/01/31 07:10:50;;;;;;;4.88;2.85;;;2.80;99.90;;;;;;5034417;28;20021;-76
2022/01/31 07:13:34;;;;;;;3.15;0.93;;;2.80;99.90;;;;;;5060446;28;20043;-76
2022/01/31 07:16:01;;;;;;;4.75;2.13;;;2.70;99.90;;;;;;5042671;28;20507;-76
2022/01/31 07:18:26;;;;;;;3.03;1.30;;;2.70;99.90;;;;;;5063814;28;20029;-76
2022/01/31 07:20:53;;;;;;;6.65;1.67;;;2.60;99.90;;;;;;5055174;28;20555;-76
2022/01/31 07:23:38;;;;;;;15.90;3.72;;;2.60;99.90;;;;;;5034294;28;20392;-75
2022/01/31 07:26:03;;;;;;;1.02;0.98;;;2.60;99.90;;;;;;5034151;28;20044;-75
2022/01/31 07:28:29;;;;;;;0.35;0.35;;;2.60;99.90;;;;;;5039844;28;20055;-75
2022/01/31 07:30:57;;;;;;;1.88;1.38;;;2.60;99.90;;;;;;5037607;28;20082;-75
2022/01/31 07:33:23;;;;;;;0.28;0.28;;;2.70;99.90;;;;;;5071767;28;20032;-75
2022/01/31 07:35:49;;;;;;;2.28;1.60;;;2.70;99.90;;;;;;5061074;28;20096;-76
2022/01/31 07:38:16;;;;;;;8.07;1.52;;;2.80;99.90;;;;;;5033777;28;20021;-75
2022/01/31 07:40:43;;;;;;;1.98;0.63;;;2.90;99.90;;;;;;5051960;28;20388;-75
2022/01/31 07:43:08;;;;;;;7.70;2.05;;;2.90;99.90;;;;;;5033492;28;20500;-76
2022/01/31 07:45:34;;;;;;;0.57;0.57;;;2.90;99.90;;;;;;5057388;28;20089;-75
2022/01/31 07:48:00;;;;;;;1.70;1.17;;;3.00;99.90;;;;;;5072102;28;20013;-75
2022/01/31 07:50:27;;;;;;;0.30;0.30;;;3.00;99.90;;;;;;5071890;28;20021;-75
2022/01/31 07:52:53;;;;;;;1.20;1.10;;;3.00;99.90;;;;;;5060648;28;20436;-75
2022/01/31 07:55:19;;;;;;;4.25;2.28;;;3.10;99.90;;;;;;5051775;28;20017;-75
2022/01/31 07:57:47;;;;;;;11.52;4.60;;;3.10;99.90;;;;;;5016840;28;20499;-75
2022/01/31 08:00:13;;;;;;;1.60;1.48;;;3.10;99.90;;;;;;5033315;28;20012;-74
2022/01/31 08:02:40;;;;;;;0.30;0.30;;;3.10;99.90;;;;;;5049788;28;20579;-75
2022/01/31 08:05:07;;;;;;;1.15;0.85;;;3.20;99.90;;;;;;5015452;28;20025;-76
2022/01/31 08:07:36;;;;;;;7.05;2.33;;;3.20;99.90;;;;;;5032016;28;20561;-76
2022/01/31 08:10:04;;;;;;;1.92;1.13;;;3.30;99.90;;;;;;5016358;28;20485;-76
2022/01/31 08:12:31;;;;;;;5.25;1.83;;;3.30;99.90;;;;;;5038189;28;20033;-75
2022/01/31 08:15:03;;;;;;;1.08;0.95;;;3.40;99.90;;;;;;5050550;28;20114;-76
2022/01/31 08:17:29;;;;;;;1.45;1.08;;;3.40;99.90;;;;;;5050650;28;20361;-75
2022/01/31 08:19:54;;;;;;;1.48;1.38;;;3.40;99.90;;;;;;5051515;28;20083;-75
2022/01/31 08:22:20;;;;;;;0.30;0.30;;;3.50;99.90;;;;;;5051173;28;20124;-75
2022/01/31 08:24:46;;;;;;;0.30;0.30;;;3.60;99.90;;;;;;5033727;28;20396;-75
2022/01/31 08:27:11;;;;;;;2.42;1.98;;;3.70;99.90;;;;;;5032662;28;20471;-75
2022/01/31 08:29:39;;;;;;;0.50;0.50;;;3.80;99.90;;;;;;5050427;28;20036;-76
2022/01/31 08:32:10;;;;;;;0.80;0.80;;;3.80;99.90;;;;;;5037968;28;20021;-75
2022/01/31 08:37:21;;;;;;;1.35;0.85;;;3.80;99.90;;;;;;5049669;28;20022;-75
2022/01/31 08:39:47;;;;;;;1.52;1.20;;;3.90;99.90;;;;;;5046035;28;20025;-75
2022/01/31 08:42:13;;;;;;;3.65;1.13;;;3.90;99.90;;;;;;5049894;28;20029;-76
2022/01/31 08:44:40;;;;;;;1.60;0.95;;;4.00;99.90;;;;;;5050702;28;20025;-75
2022/01/31 08:47:05;;;;;;;4.53;1.77;;;4.00;99.90;;;;;;5050012;28;20467;-75
2022/01/31 08:49:35;;;;;;;6.55;1.67;;;4.10;99.90;;;;;;5037461;28;20108;-75
2022/01/31 08:52:02;;;;;;;1.58;1.48;;;4.10;99.90;;;;;;5026732;28;20029;-76
2022/01/31 08:54:28;;;;;;;3.47;0.98;;;4.10;99.90;;;;;;5043900;28;20029;-75
2022/01/31 08:56:54;;;;;;;8.93;2.78;;;4.10;99.90;;;;;;5050596;28;20500;-76
2022/01/31 08:59:23;;;;;;;3.50;1.23;;;4.20;99.90;;;;;;5032756;28;20037;-76
2022/01/31 09:01:54;;;;;;;5.13;2.10;;;4.10;99.90;;;;;;5049500;28;20037;-76
2022/01/31 09:07:05;;;;;;;1.13;1.05;;;3.80;99.90;;;;;;5040967;28;20442;-76
2022/01/31 09:09:31;;;;;;;2.53;0.88;;;3.60;99.90;;;;;;5024356;28;20033;-75
2022/01/31 09:11:58;;;;;;;2.92;1.33;;;3.40;99.90;;;;;;5053649;28;20033;-76
2022/01/31 09:14:25;;;;;;;0.32;0.32;;;3.30;99.90;;;;;;5042123;28;20103;-76
2022/01/31 09:16:51;;;;;;;2.05;1.42;;;3.20;99.90;;;;;;5040973;28;20052;-75
2022/01/31 09:19:17;;;;;;;0.40;0.40;;;3.20;99.90;;;;;;5049878;28;20084;-76
2022/01/31 09:21:44;;;;;;;0.77;0.60;;;3.10;99.90;;;;;;5053730;28;20503;-76
2022/01/31 09:24:10;;;;;;;5.63;2.17;;;3.00;99.90;;;;;;5029811;28;20484;-76
2022/01/31 09:26:37;;;;;;;1.48;1.13;;;2.80;99.90;;;;;;5043321;28;20029;-78
2022/01/31 09:29:03;;;;;;;0.90;0.90;;;2.80;99.90;;;;;;5045369;28;20056;-76
2022/01/31 09:31:28;;;;;;;0.95;0.95;;;2.70;99.90;;;;;;5042371;28;20118;-76
2022/01/31 09:33:54;;;;;;;1.02;0.40;;;2.60;99.90;;;;;;5053141;28;20044;-76
2022/01/31 09:36:22;;;;;;;0.38;0.38;;;2.70;99.90;;;;;;5053344;28;20047;-76
2022/01/31 09:38:48;;;;;;;4.13;0.90;;;2.80;99.90;;;;;;5052947;28;20021;-76
2022/01/31 09:41:19;;;;;;;4.38;2.70;;;2.70;99.90;;;;;;5053469;28;20439;-76
2022/01/31 09:48:44;;;;;;;0.98;0.90;;;2.70;99.90;;;;;;5036911;28;20129;-76
2022/01/31 09:51:15;;;;;;;0.30;0.30;;;2.80;99.90;;;;;;5048628;28;20036;-76
2022/01/31 09:53:43;;;;;;;7.15;1.83;;;2.90;99.90;;;;;;5053036;28;20045;-75
2022/01/31 09:56:12;;;;;;;0.73;0.50;;;2.90;99.90;;;;;;5055060;28;20542;-76
2022/01/31 09:58:39;;;;;;;2.08;0.60;;;2.90;99.90;;;;;;5049880;28;20021;-76
2022/01/31 10:01:10;;;;;;;1.38;1.27;;;2.90;99.90;;;;;;5053168;28;20428;-77
2022/01/31 10:03:49;;;;;;;0.20;0.20;;;2.80;99.90;;;;;;5046378;28;20029;-76
2022/01/31 10:06:26;;;;;;;0.30;0.30;;;2.80;99.90;;;;;;5051494;28;20025;-76
2022/01/31 10:09:04;;;;;;;0.93;0.85;;;2.90;99.90;;;;;;5046127;28;20065;-76
2022/01/31 10:11:39;;;;;;;0.60;0.60;;;2.90;99.90;;;;;;5052463;28;20388;-75
2022/01/31 10:17:04;;;;;;;0.50;0.50;;;3.00;99.90;;;;;;5052155;28;20021;-75
2022/01/31 10:19:42;;;;;;;0.30;0.30;;;2.90;99.90;;;;;;5045302;28;20391;-75
2022/01/31 10:22:10;;;;;;;1.83;1.38;;;3.00;99.90;;;;;;5022105;28;20037;-75
2022/01/31 10:24:38;;;;;;;3.13;1.30;;;3.00;99.90;;;;;;5051840;28;20067;-75
2022/01/31 10:27:08;;;;;;;0.95;0.95;;;2.90;99.90;;;;;;5022919;28;20025;-75
2022/01/31 10:29:34;;;;;;;6.68;1.20;;;2.80;99.90;;;;;;5022816;28;20021;-75
2022/01/31 10:32:08;;;;;;;0.55;0.40;;;2.90;99.90;;;;;;5029623;28;20021;-75
2022/01/31 10:34:44;;;;;;;0.50;0.50;;;2.90;99.90;;;;;;5039254;28;21032;-75
2022/01/31 10:37:13;;;;;;;1.30;1.13;;;2.90;99.90;;;;;;5052083;28;20040;-75
2022/01/31 10:45:31;;;;;;;1.80;0.85;;;2.80;99.90;;;;;;5038826;28;20036;-75
2022/01/31 10:56:23;;;;;;;1.58;1.48;;;2.60;99.90;;;;;;5051508;28;20074;-75
2022/01/31 10:59:11;;;;;;;0.40;0.40;;;2.60;99.90;;;;;;5048003;28;20029;-75
2022/01/31 11:01:38;;;;;;;0.40;0.40;;;2.50;99.90;;;;;;5046909;28;20025;-75
2022/01/31 11:04:14;;;;;;;0.55;0.55;;;2.50;99.90;;;;;;5043504;28;20025;-75
2022/01/31 11:06:42;;;;;;;0.30;0.30;;;2.50;99.90;;;;;;5045557;28;20408;-76
2022/01/31 11:09:10;;;;;;;0.22;0.22;;;2.50;99.90;;;;;;5042790;28;20032;-75
2022/01/31 11:11:38;;;;;;;0.75;0.75;;;2.30;99.90;;;;;;5044062;28;20025;-75
2022/01/31 11:14:08;;;;;;;0.65;0.65;;;2.30;99.90;;;;;;5040354;28;20047;-74
2022/01/31 11:16:36;;;;;;;0.40;0.40;;;2.30;99.90;;;;;;5038518;28;20361;-76
2022/01/31 11:19:07;;;;;;;0.20;0.20;;;2.30;99.90;;;;;;5037553;28;20025;-75
2022/01/31 11:21:36;;;;;;;0.85;0.80;;;2.40;99.90;;;;;;5035419;28;20021;-75
2022/01/31 11:24:06;;;;;;;0.50;0.50;;;2.50;99.90;;;;;;5050812;28;20041;-75
2022/01/31 11:26:36;;;;;;;0.32;0.32;;;2.60;99.90;;;;;;5029235;28;20052;-75
2022/01/31 11:29:08;;;;;;;0.50;0.50;;;2.60;99.90;;;;;;5050694;28;20052;-75
2022/01/31 11:31:36;;;;;;;0.57;0.57;;;2.60;99.90;;;;;;5046417;28;20132;-75
2022/01/31 11:34:04;;;;;;;0.20;0.20;;;2.70;99.90;;;;;;5017047;28;20033;-75
2022/01/31 11:36:38;;;;;;;0.28;0.28;;;2.70;99.90;;;;;;5038819;28;20021;-75
2022/01/31 11:39:07;;;;;;;0.98;0.98;;;2.70;99.90;;;;;;5038828;28;20028;-75
2022/01/31 11:41:36;;;;;;;0.20;0.20;;;2.60;99.90;;;;;;5042079;28;20036;-75
2022/01/31 11:44:27;;;;;;;1.55;0.95;;;2.60;99.90;;;;;;5049935;28;20083;-75
2022/01/31 11:46:56;;;;;;;0.30;0.30;;;2.60;99.90;;;;;;5043187;28;20025;-75
2022/01/31 11:49:22;;;;;;;0.60;0.60;;;2.60;99.90;;;;;;5024523;28;20516;-75
2022/01/31 11:52:07;;;;;;;4.25;0.80;;;2.60;99.90;;;;;;5042198;28;20037;-75
2022/01/31 11:55:08;;;;;;;1.45;1.35;;;2.70;99.90;;;;;;5047033;28;20021;-75
2022/01/31 11:57:36;;;;;;;1.27;0.73;;;2.70;99.90;;;;;;4994587;28;20133;-75
2022/01/31 12:00:12;;;;;;;1.08;0.82;;;2.70;99.90;;;;;;5044581;28;20017;-75
2022/01/31 12:02:47;;;;;;;0.98;0.80;;;2.70;99.90;;;;;;5050485;28;20052;-75
2022/01/31 12:05:25;;;;;;;1.02;0.93;;;2.70;99.90;;;;;;5050558;28;20033;-75
2022/01/31 12:08:22;;;;;;;0.20;0.20;;;2.80;99.90;;;;;;5050262;28;20475;-75
2022/01/31 12:10:55;;;;;;;3.67;0.93;;;2.80;99.90;;;;;;5001236;28;20029;-75
2022/01/31 12:13:38;;;;;;;0.75;0.57;;;2.90;99.90;;;;;;5041296;28;20025;-75
2022/01/31 12:16:22;;;;;;;0.40;0.40;;;3.10;99.90;;;;;;5026387;28;20425;-75
2022/01/31 12:24:27;;;;;;;0.73;0.73;;;3.10;99.90;;;;;;5034074;28;20064;-75
2022/01/31 12:26:54;;;;;;;0.30;0.30;;;3.20;99.90;;;;;;5049781;28;20022;-75
2022/01/31 12:29:23;;;;;;;0.95;0.60;;;3.30;99.90;;;;;;5037196;28;20489;-75
2022/01/31 12:31:59;;;;;;;1.45;1.00;;;3.40;99.90;;;;;;5036290;28;20091;-75
2022/01/31 12:34:34;;;;;;;0.63;0.63;;;3.50;99.90;;;;;;5034262;28;20043;-75
2022/01/31 12:37:25;;;;;;;0.80;0.52;;;3.40;99.90;;;;;;5049835;28;20028;-75
2022/01/31 12:40:03;;;;;;;0.20;0.20;;;3.40;99.90;;;;;;5029700;28;20040;-75
2022/01/31 12:45:26;;;;;;;0.30;0.30;;;3.50;99.90;;;;;;5045924;28;20025;-75
2022/01/31 12:48:19;;;;;;;0.40;0.40;;;3.40;99.90;;;;;;5036762;28;20029;-75
2022/01/31 12:50:51;;;;;;;0.50;0.50;;;3.30;99.90;;;;;;5053751;28;20017;-75
2022/01/31 12:53:37;;;;;;;;;;;3.30;99.90;;;;;;5054812;28;20033;-75
2022/01/31 12:56:09;;;;;;;0.60;0.60;;;3.20;99.90;;;;;;5037505;28;20034;-75
2022/01/31 12:58:50;;;;;;;;;;;3.20;99.90;;;;;;5029733;28;20112;-75
2022/01/31 13:01:16;;;;;;;0.30;0.30;;;3.20;99.90;;;;;;5050119;28;19947;-75
2022/01/31 13:04:16;;;;;;;0.52;0.52;;;3.30;99.90;;;;;;5053870;28;20025;-75
2022/01/31 13:06:53;;;;;;;0.30;0.30;;;3.20;99.90;;;;;;5049373;28;20028;-75
2022/01/31 13:09:25;;;;;;;0.30;0.30;;;3.30;99.90;;;;;;5053897;28;20039;-75
2022/01/31 13:11:59;;;;;;;0.50;0.50;;;3.20;99.90;;;;;;5034487;28;20029;-75
2022/01/31 13:14:28;;;;;;;0.30;0.30;;;3.20;99.90;;;;;;5053885;28;20048;-75
2022/01/31 13:19:33;;;;;;;0.40;0.40;;;3.30;99.90;;;;;;5054103;28;20032;-75
2022/01/31 13:22:03;;;;;;;0.40;0.40;;;3.40;99.90;;;;;;5051895;28;20465;-75
2022/01/31 13:24:48;;;;;;;3.80;0.95;;;3.30;99.90;;;;;;5053527;28;20304;-75
2022/01/31 13:27:16;;;;;;;0.40;0.40;;;3.20;99.90;;;;;;5020765;28;20086;-75
2022/01/31 13:29:52;;;;;;;0.35;0.35;;;3.10;99.90;;;;;;5045463;28;20029;-75
2022/01/31 13:32:24;;;;;;;2.72;0.50;;;3.10;99.90;;;;;;5038471;28;20045;-75
2022/01/31 13:34:59;;;;;;;0.32;0.32;;;3.10;99.90;;;;;;5042133;28;20207;-75
2022/01/31 13:37:45;;;;;;;0.88;0.88;;;3.20;99.90;;;;;;5053730;28;20545;-75
2022/01/31 13:40:21;;;;;;;1.58;1.05;;;3.30;99.90;;;;;;5040288;28;20020;-75
2022/01/31 13:42:56;;;;;;;0.30;0.30;;;3.30;99.90;;;;;;5034857;28;20033;-75
2022/01/31 13:45:29;;;;;;;0.30;0.30;;;3.30;99.90;;;;;;5041769;28;20025;-75
2022/01/31 13:48:06;;;;;;;1.27;1.17;;;3.30;99.90;;;;;;5052540;28;20104;-75